Time;durP1;ratioP1;P1;durP2;ratioP2;P2;SDS_P1;SDS_P2;PMS_P1;PMS_P2;Temp;Humidity;BMP_temperature;BMP_pressure;BME280_temperature;BME280_humidity;BME280_pressure;Samples;Min_cycle;Max_cycle;Signal;HPM_P1;HPM_P2
2023/06/05 00:00:47;;;;;;;0.15;0.15;;;7.90;99.90;;;;;;5144015;27;20050;-75
2023/06/05 00:03:13;;;;;;;0.10;0.10;;;7.90;99.90;;;;;;5143792;27;20446;-75
2023/06/05 00:05:38;;;;;;;0.55;0.30;;;7.80;99.90;;;;;;5126939;27;20188;-75
2023/06/05 00:08:04;;;;;;;0.00;0.00;;;7.80;99.90;;;;;;5144330;27;20136;-74
2023/06/05 00:10:29;;;;;;;0.20;0.20;;;7.70;99.90;;;;;;5144033;27;20111;-75
2023/06/05 00:12:55;;;;;;;0.00;0.00;;;7.50;99.90;;;;;;5143180;27;20055;-75
2023/06/05 00:15:21;;;;;;;0.35;0.30;;;7.50;99.90;;;;;;5128816;27;20145;-75
2023/06/05 00:17:47;;;;;;;0.22;0.20;;;7.70;99.90;;;;;;5142337;27;20039;-75
2023/06/05 00:20:12;;;;;;;0.10;0.10;;;7.60;99.90;;;;;;5143767;27;20405;-74
2023/06/05 00:22:44;;;;;;;0.00;0.00;;;7.60;99.90;;;;;;5143913;27;20047;-75
2023/06/05 00:25:09;;;;;;;0.08;0.08;;;7.60;99.90;;;;;;5143450;27;20469;-74
2023/06/05 00:27:35;;;;;;;0.00;0.00;;;7.60;99.90;;;;;;5129809;27;20068;-75
2023/06/05 00:30:01;;;;;;;0.30;0.30;;;7.60;99.90;;;;;;5126622;27;20072;-75
2023/06/05 00:32:27;;;;;;;0.70;0.65;;;7.60;99.90;;;;;;5126788;27;20399;-75
2023/06/05 00:34:52;;;;;;;0.10;0.10;;;7.60;99.90;;;;;;5126857;27;20114;-75
2023/06/05 00:37:19;;;;;;;0.30;0.25;;;7.70;99.90;;;;;;5126424;27;20442;-74
2023/06/05 00:39:45;;;;;;;0.32;0.32;;;7.70;99.90;;;;;;5126218;27;20413;-74
2023/06/05 00:42:11;;;;;;;0.70;0.30;;;7.70;99.90;;;;;;5126480;27;20039;-74
2023/06/05 00:44:37;;;;;;;0.45;0.40;;;7.70;99.90;;;;;;5131908;27;20034;-74
2023/06/05 00:47:03;;;;;;;0.20;0.20;;;7.60;99.90;;;;;;5134942;27;20039;-75
2023/06/05 00:49:30;;;;;;;0.08;0.08;;;7.50;99.90;;;;;;5126526;27;20047;-74
2023/06/05 00:51:57;;;;;;;0.55;0.55;;;7.40;99.90;;;;;;5126831;27;20051;-74
2023/06/05 00:54:23;;;;;;;0.75;0.75;;;7.30;99.90;;;;;;5126127;27;20135;-74
2023/06/05 00:56:48;;;;;;;0.10;0.10;;;7.30;99.90;;;;;;5126327;27;20082;-74
2023/06/05 00:59:15;;;;;;;0.30;0.30;;;7.30;99.90;;;;;;5126426;27;20058;-75
2023/06/05 01:01:42;;;;;;;0.35;0.28;;;7.30;99.90;;;;;;5126778;27;20098;-75
2023/06/05 01:04:08;;;;;;;0.00;0.00;;;7.20;99.90;;;;;;5126490;27;20142;-74
2023/06/05 01:06:34;;;;;;;0.00;0.00;;;7.20;99.90;;;;;;5125848;27;20547;-74
2023/06/05 01:09:01;;;;;;;0.00;0.00;;;7.30;99.90;;;;;;5125944;27;20173;-75
2023/06/05 01:11:59;;;;;;;0.22;0.22;;;7.20;99.90;;;;;;5126379;27;20390;-75
2023/06/05 01:14:30;;;;;;;0.10;0.10;;;7.20;99.90;;;;;;5127191;27;20063;-74
2023/06/05 01:17:00;;;;;;;0.30;0.30;;;7.20;99.90;;;;;;5132984;27;20397;-75
2023/06/05 01:19:31;;;;;;;0.00;0.00;;;7.20;99.90;;;;;;5125995;27;20039;-74
2023/06/05 01:22:00;;;;;;;0.55;0.45;;;7.20;99.90;;;;;;5125977;27;20054;-74
2023/06/05 01:24:27;;;;;;;0.28;0.28;;;7.30;99.90;;;;;;5125851;27;20378;-75
2023/06/05 01:27:00;;;;;;;0.30;0.30;;;7.50;99.90;;;;;;5138302;27;20047;-74
2023/06/05 01:29:58;;;;;;;0.50;0.50;;;7.40;99.90;;;;;;5146534;27;20054;-74
2023/06/05 01:32:46;;;;;;;0.82;0.82;;;7.60;99.90;;;;;;5104474;27;20055;-75
2023/06/05 01:35:17;;;;;;;0.10;0.10;;;7.60;99.90;;;;;;5130602;27;20173;-75
2023/06/05 01:37:48;;;;;;;0.43;0.38;;;7.80;99.90;;;;;;5124940;27;20074;-74
2023/06/05 01:40:17;;;;;;;0.00;0.00;;;7.90;99.90;;;;;;5125698;27;20359;-74
2023/06/05 01:42:43;;;;;;;0.00;0.00;;;7.90;99.90;;;;;;5125745;27;20047;-74
2023/06/05 01:45:11;;;;;;;0.00;0.00;;;7.90;99.90;;;;;;5140494;27;20473;-75
2023/06/05 01:47:37;;;;;;;0.88;0.30;;;8.00;99.90;;;;;;5146599;27;20087;-74
2023/06/05 01:50:05;;;;;;;0.55;0.55;;;8.10;99.90;;;;;;5146514;27;20039;-74
2023/06/05 01:52:31;;;;;;;0.20;0.17;;;8.10;99.90;;;;;;5146108;27;20038;-74
2023/06/05 01:55:01;;;;;;;0.00;0.00;;;8.20;99.90;;;;;;5132807;27;20051;-75
2023/06/05 01:57:27;;;;;;;0.00;0.00;;;8.30;99.90;;;;;;5124847;27;20050;-75
2023/06/05 01:59:54;;;;;;;1.10;1.08;;;8.30;99.90;;;;;;5124877;27;20043;-75
2023/06/05 02:02:21;;;;;;;0.57;0.57;;;8.40;99.90;;;;;;5125347;27;20046;-74
2023/06/05 02:04:47;;;;;;;0.35;0.17;;;8.50;99.90;;;;;;5125527;27;20559;-75
2023/06/05 02:07:14;;;;;;;0.47;0.45;;;8.50;99.90;;;;;;5124965;27;20103;-75
2023/06/05 02:09:43;;;;;;;0.10;0.10;;;8.60;99.90;;;;;;5124679;27;20039;-74
2023/06/05 02:12:09;;;;;;;0.52;0.32;;;8.60;99.90;;;;;;5124685;27;20409;-75
2023/06/05 02:14:35;;;;;;;0.47;0.20;;;8.60;99.90;;;;;;5125146;27;20055;-76
2023/06/05 02:17:06;;;;;;;0.00;0.00;;;8.50;99.90;;;;;;5124890;27;20641;-75
2023/06/05 02:19:35;;;;;;;0.20;0.20;;;8.70;99.90;;;;;;5125550;27;20120;-75
2023/06/05 02:22:01;;;;;;;0.25;0.25;;;8.60;99.90;;;;;;5124641;27;20078;-75
2023/06/05 02:24:27;;;;;;;0.30;0.20;;;8.60;99.90;;;;;;5139861;27;20085;-74
2023/06/05 02:26:52;;;;;;;0.10;0.08;;;8.60;99.90;;;;;;5145526;27;20042;-74
2023/06/05 02:29:18;;;;;;;0.68;0.68;;;8.70;99.90;;;;;;5145298;27;20050;-75
2023/06/05 02:31:44;;;;;;;0.10;0.10;;;8.60;99.90;;;;;;5145808;27;20125;-75
2023/06/05 02:34:11;;;;;;;0.00;0.00;;;8.60;99.90;;;;;;5144932;27;20050;-74
2023/06/05 02:36:37;;;;;;;0.08;0.08;;;8.50;99.90;;;;;;5145177;27;20059;-75
2023/06/05 02:39:06;;;;;;;0.10;0.10;;;8.50;99.90;;;;;;5144888;27;20569;-74
2023/06/05 02:41:32;;;;;;;0.43;0.43;;;8.40;99.90;;;;;;5144917;27;20121;-75
2023/06/05 02:43:59;;;;;;;0.35;0.35;;;8.30;99.90;;;;;;5134046;27;20158;-74
2023/06/05 02:46:25;;;;;;;0.00;0.00;;;8.30;99.90;;;;;;5123973;27;20088;-75
2023/06/05 02:48:51;;;;;;;0.47;0.40;;;8.20;99.90;;;;;;5123501;27;20054;-75
2023/06/05 02:51:17;;;;;;;0.65;0.45;;;8.10;99.90;;;;;;5124233;27;20039;-75
2023/06/05 02:53:43;;;;;;;0.00;0.00;;;8.10;99.90;;;;;;5123947;27;20090;-75
2023/06/05 02:56:08;;;;;;;0.00;0.00;;;8.00;99.90;;;;;;5123905;27;20093;-75
2023/06/05 02:58:34;;;;;;;0.80;0.63;;;8.00;99.90;;;;;;5124299;27;20058;-75
2023/06/05 03:01:01;;;;;;;0.28;0.25;;;8.10;99.90;;;;;;5124223;27;20031;-74
2023/06/05 03:03:31;;;;;;;0.05;0.05;;;8.20;99.90;;;;;;5124091;27;20050;-75
2023/06/05 03:06:04;;;;;;;0.00;0.00;;;8.20;99.90;;;;;;5124030;27;20043;-74
2023/06/05 03:08:38;;;;;;;0.00;0.00;;;8.20;99.90;;;;;;5124346;27;20103;-75
2023/06/05 03:11:04;;;;;;;0.00;0.00;;;8.20;99.90;;;;;;5124193;27;20051;-76
2023/06/05 03:13:30;;;;;;;0.38;0.32;;;8.20;99.90;;;;;;5123180;27;20172;-75
2023/06/05 03:15:57;;;;;;;0.10;0.10;;;8.20;99.90;;;;;;5124152;27;20054;-75
2023/06/05 03:18:24;;;;;;;0.00;0.00;;;8.20;99.90;;;;;;5123763;27;20094;-75
2023/06/05 03:20:54;;;;;;;0.00;0.00;;;8.20;99.90;;;;;;5123907;28;20054;-75
2023/06/05 03:23:24;;;;;;;1.48;0.52;;;8.20;99.90;;;;;;5123193;28;20046;-76
2023/06/05 03:25:51;;;;;;;0.00;0.00;;;8.20;99.90;;;;;;5114711;27;20046;-76
2023/06/05 03:28:17;;;;;;;1.08;0.50;;;9.10;99.90;;;;;;5123722;28;20050;-75
2023/06/05 03:30:43;;;;;;;0.00;0.00;;;8.30;99.90;;;;;;5123669;28;20108;-75
2023/06/05 03:33:09;;;;;;;0.10;0.10;;;8.40;99.90;;;;;;5123129;28;20472;-72
2023/06/05 03:35:34;;;;;;;0.10;0.10;;;8.40;99.90;;;;;;5123511;28;20775;-73
2023/06/05 03:38:01;;;;;;;0.52;0.10;;;8.40;99.90;;;;;;5123466;28;20043;-72
2023/06/05 03:40:27;;;;;;;0.00;0.00;;;8.40;99.90;;;;;;5123795;28;20074;-73
2023/06/05 03:42:52;;;;;;;0.13;0.05;;;8.50;99.90;;;;;;5123658;27;20043;-75
2023/06/05 03:45:18;;;;;;;0.35;0.32;;;8.60;99.90;;;;;;5123627;27;20043;-75
2023/06/05 03:47:46;;;;;;;0.00;0.00;;;8.60;99.90;;;;;;5123567;28;20051;-75
2023/06/05 03:50:12;;;;;;;0.08;0.08;;;8.70;99.90;;;;;;5123867;28;20618;-75
2023/06/05 03:52:39;;;;;;;0.22;0.20;;;8.80;99.90;;;;;;5123478;28;20043;-73
2023/06/05 03:55:07;;;;;;;0.60;0.45;;;8.80;99.90;;;;;;5124312;27;20055;-73
2023/06/05 03:57:34;;;;;;;0.00;0.00;;;8.80;99.90;;;;;;5123141;28;20047;-73
2023/06/05 03:59:59;;;;;;;0.10;0.10;;;8.90;99.90;;;;;;5123542;27;20043;-73
2023/06/05 04:02:25;;;;;;;1.10;0.52;;;8.90;99.90;;;;;;5126275;27;20512;-73
2023/06/05 04:04:51;;;;;;;0.35;0.35;;;9.00;99.90;;;;;;5144749;27;20134;-73
2023/06/05 04:07:17;;;;;;;0.00;0.00;;;9.10;99.90;;;;;;5147845;27;20063;-73
2023/06/05 04:09:43;;;;;;;0.55;0.32;;;9.20;99.90;;;;;;5147767;27;20125;-73
2023/06/05 04:12:13;;;;;;;0.17;0.10;;;9.40;99.90;;;;;;5126585;27;20134;-73
2023/06/05 04:14:39;;;;;;;0.00;0.00;;;9.60;99.90;;;;;;5142018;27;20047;-73
2023/06/05 04:17:05;;;;;;;0.10;0.10;;;9.70;99.90;;;;;;5147570;27;20042;-73
2023/06/05 04:19:30;;;;;;;0.20;0.20;;;9.80;99.90;;;;;;5147763;27;20079;-73
2023/06/05 04:21:56;;;;;;;0.00;0.00;;;9.90;99.90;;;;;;5141058;27;20043;-75
2023/06/05 04:24:22;;;;;;;0.08;0.08;;;10.10;99.90;;;;;;5126437;27;20111;-75
2023/06/05 04:26:47;;;;;;;0.00;0.00;;;10.20;99.90;;;;;;5127457;27;20089;-74
2023/06/05 04:29:15;;;;;;;0.10;0.10;;;10.40;99.90;;;;;;5126578;27;20054;-75
2023/06/05 04:31:47;;;;;;;0.00;0.00;;;10.40;99.90;;;;;;5126874;27;20047;-75
2023/06/05 04:34:13;;;;;;;1.55;0.55;;;10.50;99.90;;;;;;5126093;27;20095;-75
2023/06/05 04:36:40;;;;;;;0.20;0.20;;;10.50;99.90;;;;;;5126698;27;20042;-74
2023/06/05 04:39:13;;;;;;;0.45;0.45;;;11.80;99.90;;;;;;5126844;27;20039;-76
2023/06/05 04:41:44;;;;;;;0.38;0.38;;;10.50;1.00;;;;;;5128607;27;20066;-75
2023/06/05 04:44:16;;;;;;;0.20;0.20;;;10.60;1.00;;;;;;5137246;27;20511;-75
2023/06/05 04:46:48;;;;;;;0.20;0.20;;;11.00;1.00;;;;;;5127701;27;20050;-75
2023/06/05 04:49:14;;;;;;;0.22;0.22;;;11.10;1.00;;;;;;5127083;27;20119;-75
2023/06/05 04:51:41;;;;;;;0.68;0.68;;;11.70;1.00;;;;;;5125962;27;20615;-75
2023/06/05 04:54:06;;;;;;;0.73;0.73;;;12.40;99.90;;;;;;5125753;27;20046;-75
2023/06/05 04:56:34;;;;;;;1.65;0.85;;;13.10;99.90;;;;;;5106800;27;20102;-75
2023/06/05 04:59:01;;;;;;;0.00;0.00;;;13.60;1.00;;;;;;5124025;27;20078;-75
2023/06/05 05:01:27;;;;;;;0.75;0.68;;;14.10;99.90;;;;;;5124114;27;20382;-75
2023/06/05 05:03:54;;;;;;;0.52;0.47;;;14.40;99.90;;;;;;5131125;27;20051;-75
2023/06/05 05:06:21;;;;;;;0.00;0.00;;;14.70;99.90;;;;;;5144116;27;20054;-76
2023/06/05 05:08:50;;;;;;;0.52;0.50;;;15.10;99.90;;;;;;5143820;27;20559;-75
2023/06/05 05:11:16;;;;;;;0.20;0.20;;;15.30;99.90;;;;;;5144204;27;20514;-75
2023/06/05 05:13:43;;;;;;;0.10;0.10;;;15.60;91.30;;;;;;5123611;27;20059;-75
2023/06/05 05:16:09;;;;;;;0.22;0.20;;;15.60;82.00;;;;;;5122400;27;20097;-75
2023/06/05 05:18:36;;;;;;;0.10;0.10;;;16.00;89.80;;;;;;5122426;27;20047;-75
2023/06/05 05:21:04;;;;;;;0.57;0.47;;;16.10;67.70;;;;;;5127545;27;20586;-75
2023/06/05 05:23:31;;;;;;;1.55;0.80;;;16.30;17.70;;;;;;5139247;27;20105;-75
2023/06/05 05:25:56;;;;;;;0.05;0.05;;;16.50;19.60;;;;;;5128452;27;20039;-75
2023/06/05 05:28:22;;;;;;;2.25;1.00;;;16.80;43.30;;;;;;5126028;27;20120;-75
2023/06/05 05:30:47;;;;;;;0.15;0.15;;;17.00;1.00;;;;;;5124939;27;20043;-75
2023/06/05 05:33:14;;;;;;;0.47;0.40;;;17.30;1.00;;;;;;5125002;27;20398;-75
2023/06/05 05:35:40;;;;;;;1.23;0.43;;;17.60;7.70;;;;;;5124102;27;20351;-75
2023/06/05 05:38:06;;;;;;;0.10;0.05;;;17.50;1.00;;;;;;5123204;27;20484;-75
2023/06/05 05:40:32;;;;;;;0.17;0.17;;;17.50;1.00;;;;;;5122969;27;20490;-75
2023/06/05 05:42:57;;;;;;;0.00;0.00;;;18.00;1.00;;;;;;5122852;27;20043;-73
2023/06/05 05:45:23;;;;;;;0.13;0.13;;;18.50;1.00;;;;;;5122635;27;20095;-74
2023/06/05 05:47:48;;;;;;;0.00;0.00;;;18.50;1.00;;;;;;5122679;27;20244;-76
2023/06/05 05:50:14;;;;;;;0.32;0.30;;;18.50;1.00;;;;;;5122647;27;20103;-75
2023/06/05 05:52:40;;;;;;;0.00;0.00;;;18.10;1.00;;;;;;5124176;27;20103;-75
2023/06/05 05:55:06;;;;;;;0.20;0.13;;;17.70;1.00;;;;;;5124657;27;20067;-75
2023/06/05 05:57:33;;;;;;;0.60;0.43;;;17.40;1.00;;;;;;5124094;27;20043;-73
2023/06/05 05:59:58;;;;;;;0.35;0.30;;;16.90;1.00;;;;;;5124286;27;20458;-73
2023/06/05 06:02:24;;;;;;;0.00;0.00;;;16.60;1.00;;;;;;5124552;27;20047;-73
2023/06/05 06:04:50;;;;;;;0.30;0.10;;;16.40;1.00;;;;;;5123834;27;20407;-74
2023/06/05 06:07:15;;;;;;;0.00;0.00;;;16.40;1.00;;;;;;5123873;27;20103;-73
2023/06/05 06:09:42;;;;;;;0.55;0.20;;;16.30;1.00;;;;;;5123824;27;20051;-73
2023/06/05 06:12:08;;;;;;;0.00;0.00;;;16.40;1.00;;;;;;5124010;27;20063;-73
2023/06/05 06:14:34;;;;;;;0.25;0.25;;;16.50;1.00;;;;;;5123937;27;20195;-73
2023/06/05 06:17:01;;;;;;;0.15;0.15;;;16.50;1.00;;;;;;5123742;27;20083;-73
2023/06/05 06:19:27;;;;;;;0.15;0.10;;;17.30;1.00;;;;;;5124236;27;20082;-73
2023/06/05 06:21:55;;;;;;;0.50;0.35;;;17.80;1.00;;;;;;5123430;27;20130;-73
2023/06/05 06:24:21;;;;;;;0.35;0.28;;;18.20;1.00;;;;;;5122909;27;20603;-73
2023/06/05 06:26:48;;;;;;;0.17;0.13;;;19.00;1.00;;;;;;5123663;27;20147;-73
2023/06/05 06:29:20;;;;;;;2.65;0.73;;;20.70;1.00;;;;;;5123668;27;20524;-73
2023/06/05 06:31:46;;;;;;;0.15;0.15;;;21.30;1.00;;;;;;5123659;27;20043;-73
2023/06/05 06:34:12;;;;;;;0.00;0.00;;;21.80;1.00;;;;;;5122810;27;20477;-73
2023/06/05 06:36:43;;;;;;;0.32;0.32;;;21.70;1.00;;;;;;5122548;27;20044;-73
2023/06/05 06:39:10;;;;;;;1.85;0.40;;;21.80;1.00;;;;;;5122590;27;20722;-73
2023/06/05 06:41:36;;;;;;;0.38;0.38;;;21.50;99.90;;;;;;5123356;27;20071;-73
2023/06/05 06:44:03;;;;;;;0.52;0.25;;;21.70;99.90;;;;;;5122867;27;20054;-74
2023/06/05 06:46:29;;;;;;;0.10;0.10;;;22.50;1.00;;;;;;5122958;27;20043;-73
2023/06/05 06:48:55;;;;;;;0.00;0.00;;;22.20;99.90;;;;;;5123143;27;20043;-73
2023/06/05 06:51:24;;;;;;;5.35;1.27;;;22.30;99.90;;;;;;5123298;27;20119;-73
2023/06/05 06:53:50;;;;;;;0.20;0.17;;;21.90;99.90;;;;;;5123345;27;20473;-74
2023/06/05 06:56:17;;;;;;;0.15;0.10;;;22.30;99.90;;;;;;5123026;27;20439;-73
2023/06/05 06:58:43;;;;;;;0.00;0.00;;;22.20;99.90;;;;;;5122652;27;20494;-73
2023/06/05 07:01:11;;;;;;;0.00;0.00;;;22.20;99.90;;;;;;5120006;27;20035;-73
2023/06/05 07:03:38;;;;;;;0.00;0.00;;;22.40;99.90;;;;;;5122235;27;20043;-73
2023/06/05 07:06:04;;;;;;;0.47;0.13;;;22.80;99.90;;;;;;5122610;27;20594;-73
2023/06/05 07:08:29;;;;;;;21.65;0.47;;;22.80;99.90;;;;;;5122512;27;21146;-73
2023/06/05 07:10:55;;;;;;;0.32;0.30;;;22.60;99.90;;;;;;5120167;27;20039;-73
2023/06/05 07:13:21;;;;;;;0.10;0.10;;;23.00;99.90;;;;;;5122613;27;20486;-73
2023/06/05 07:15:47;;;;;;;0.35;0.22;;;23.60;99.90;;;;;;5122799;27;20038;-74
2023/06/05 07:18:13;;;;;;;0.05;0.05;;;23.00;99.90;;;;;;5122569;27;20045;-74
2023/06/05 07:20:38;;;;;;;0.00;0.00;;;22.60;99.90;;;;;;5123023;27;20123;-73
2023/06/05 07:23:04;;;;;;;0.03;0.00;;;21.80;99.90;;;;;;5123037;28;20062;-73
2023/06/05 07:25:30;;;;;;;0.35;0.25;;;22.00;99.90;;;;;;5122700;28;20051;-73
2023/06/05 07:27:55;;;;;;;0.32;0.32;;;21.80;99.90;;;;;;5122778;28;20039;-73
2023/06/05 07:30:21;;;;;;;0.10;0.10;;;21.10;99.90;;;;;;5122588;28;20039;-74
2023/06/05 07:32:47;;;;;;;0.10;0.10;;;20.40;99.90;;;;;;5122358;28;20043;-73
2023/06/05 07:35:14;;;;;;;0.13;0.10;;;20.00;99.90;;;;;;5124165;27;20043;-73
2023/06/05 07:37:39;;;;;;;0.00;0.00;;;20.50;99.90;;;;;;5124726;27;20617;-73
2023/06/05 07:40:06;;;;;;;0.28;0.15;;;21.30;99.90;;;;;;5124750;27;20059;-73
2023/06/05 07:42:31;;;;;;;0.00;0.00;;;22.40;99.90;;;;;;5126565;27;20508;-73
2023/06/05 07:44:57;;;;;;;0.25;0.10;;;22.70;99.90;;;;;;5126467;27;20314;-73
2023/06/05 07:47:23;;;;;;;0.60;0.32;;;22.60;99.90;;;;;;5126571;27;20039;-73
2023/06/05 07:50:03;;;;;;;0.10;0.10;;;22.70;99.90;;;;;;5127261;27;20449;-74
2023/06/05 07:52:30;;;;;;;0.00;0.00;;;22.70;99.90;;;;;;5127159;27;20362;-74
2023/06/05 07:54:56;;;;;;;0.05;0.03;;;23.00;99.90;;;;;;5126504;27;20142;-74
2023/06/05 07:57:23;;;;;;;0.17;0.10;;;23.10;99.90;;;;;;5126548;27;20122;-74
2023/06/05 07:59:50;;;;;;;0.40;0.40;;;23.40;99.90;;;;;;5126211;27;20140;-73
2023/06/05 08:02:17;;;;;;;0.35;0.15;;;24.30;99.90;;;;;;5126601;27;20123;-73
2023/06/05 08:04:44;;;;;;;0.55;0.30;;;24.20;99.90;;;;;;5126481;27;20043;-74
2023/06/05 08:07:09;;;;;;;0.17;0.08;;;24.00;99.90;;;;;;5126491;27;20530;-73
2023/06/05 08:09:36;;;;;;;0.08;0.08;;;23.70;99.90;;;;;;5126197;27;20043;-74
2023/06/05 08:12:06;;;;;;;0.00;0.00;;;24.50;99.90;;;;;;5126222;27;20063;-73
2023/06/05 08:14:33;;;;;;;0.20;0.13;;;24.70;99.90;;;;;;5125900;27;20051;-73
2023/06/05 08:16:58;;;;;;;0.45;0.45;;;25.10;99.90;;;;;;5126312;27;20043;-74
2023/06/05 08:19:24;;;;;;;0.20;0.20;;;24.70;99.90;;;;;;5126184;27;20174;-73
2023/06/05 08:21:53;;;;;;;0.05;0.05;;;24.60;99.90;;;;;;5124703;27;20039;-73
2023/06/05 08:24:20;;;;;;;0.00;0.00;;;25.30;99.90;;;;;;5123153;27;20138;-73
2023/06/05 08:26:46;;;;;;;1.45;0.63;;;25.10;99.90;;;;;;5123430;27;20122;-73
2023/06/05 08:29:12;;;;;;;0.90;0.63;;;24.60;99.90;;;;;;5123206;27;20114;-73
2023/06/05 08:31:38;;;;;;;0.00;0.00;;;24.90;99.90;;;;;;5123419;27;20051;-73
2023/06/05 08:34:06;;;;;;;0.47;0.32;;;24.90;99.90;;;;;;5112340;27;20058;-73
2023/06/05 08:36:32;;;;;;;0.08;0.00;;;24.80;99.90;;;;;;5102578;28;20524;-73
2023/06/05 08:38:58;;;;;;;0.00;0.00;;;25.40;99.90;;;;;;5102838;28;20051;-73
2023/06/05 08:41:25;;;;;;;0.10;0.00;;;25.50;99.90;;;;;;5121893;27;20041;-73
2023/06/05 08:44:14;;;;;;;0.00;0.00;;;26.00;99.90;;;;;;5123031;27;20432;-73
2023/06/05 08:46:41;;;;;;;0.10;0.10;;;26.50;99.90;;;;;;5121733;27;20050;-73
2023/06/05 08:49:10;;;;;;;0.82;0.68;;;26.70;99.90;;;;;;5123017;27;20142;-73
2023/06/05 08:51:38;;;;;;;0.47;0.38;;;25.90;99.90;;;;;;5122759;27;20047;-73
2023/06/05 08:54:09;;;;;;;0.03;0.03;;;26.40;99.90;;;;;;5123081;27;20039;-73
2023/06/05 08:56:36;;;;;;;0.00;0.00;;;26.50;99.90;;;;;;5123038;27;20484;-73
2023/06/05 08:59:04;;;;;;;0.00;0.00;;;26.70;99.90;;;;;;5123061;27;20474;-73
2023/06/05 09:01:32;;;;;;;1.92;0.60;;;26.40;99.90;;;;;;5122578;27;20047;-73
2023/06/05 09:03:57;;;;;;;0.52;0.22;;;25.80;99.90;;;;;;5104796;27;20122;-73
2023/06/05 09:06:23;;;;;;;0.30;0.30;;;25.90;99.90;;;;;;5122817;27;20571;-73
2023/06/05 09:08:49;;;;;;;2.92;0.30;;;26.20;99.90;;;;;;5122569;27;20727;-72
2023/06/05 09:11:31;;;;;;;0.00;0.00;;;25.90;99.90;;;;;;5122024;27;20054;-73
2023/06/05 09:14:01;;;;;;;0.00;0.00;;;26.20;99.90;;;;;;5122522;27;20051;-74
2023/06/05 09:16:33;;;;;;;0.25;0.10;;;25.80;99.90;;;;;;5103198;27;20048;-73
2023/06/05 09:18:59;;;;;;;0.63;0.20;;;25.80;99.90;;;;;;5101877;28;20178;-73
2023/06/05 09:21:33;;;;;;;0.00;0.00;;;26.50;99.90;;;;;;5120627;27;20472;-73
2023/06/05 09:24:12;;;;;;;0.35;0.35;;;26.90;99.90;;;;;;5104115;27;20078;-73
2023/06/05 09:26:51;;;;;;;0.57;0.50;;;27.20;99.90;;;;;;5101783;28;20058;-73
2023/06/05 09:29:27;;;;;;;0.15;0.10;;;27.90;99.90;;;;;;5103312;27;20047;-73
2023/06/05 09:31:55;;;;;;;4.70;0.73;;;27.00;99.90;;;;;;5143112;27;20415;-73
2023/06/05 09:34:27;;;;;;;0.20;0.20;;;27.00;99.90;;;;;;5143076;27;20049;-73
2023/06/05 09:36:54;;;;;;;0.52;0.32;;;27.90;99.90;;;;;;5142692;27;20053;-73
2023/06/05 09:39:21;;;;;;;1.00;0.40;;;27.80;99.90;;;;;;5141371;27;20050;-73
2023/06/05 09:41:51;;;;;;;0.25;0.25;;;27.60;99.90;;;;;;5122509;27;20055;-73
2023/06/05 09:44:18;;;;;;;0.68;0.43;;;27.30;99.90;;;;;;5121931;27;20043;-73
2023/06/05 09:47:10;;;;;;;1.45;0.90;;;26.60;99.90;;;;;;5121587;27;20058;-73
2023/06/05 09:49:41;;;;;;;1.25;0.60;;;27.50;99.90;;;;;;5117584;27;20196;-73
2023/06/05 09:52:10;;;;;;;0.05;0.05;;;27.40;99.90;;;;;;5121803;27;20043;-73
2023/06/05 09:54:37;;;;;;;0.70;0.38;;;26.90;99.90;;;;;;5121890;27;20046;-73
2023/06/05 09:57:05;;;;;;;0.15;0.15;;;27.00;99.90;;;;;;5121651;27;20422;-73
2023/06/05 09:59:32;;;;;;;0.17;0.17;;;26.10;99.90;;;;;;5102702;27;20053;-73
2023/06/05 10:02:05;;;;;;;1.30;0.52;;;25.40;99.90;;;;;;5123049;27;20051;-73
2023/06/05 10:04:38;;;;;;;0.30;0.30;;;25.20;99.90;;;;;;5124474;27;20039;-73
2023/06/05 10:07:04;;;;;;;0.47;0.35;;;24.90;99.90;;;;;;5124513;27;20055;-72
2023/06/05 10:09:31;;;;;;;0.00;0.00;;;24.80;99.90;;;;;;5123504;27;20557;-73
2023/06/05 10:11:58;;;;;;;0.35;0.20;;;24.70;99.90;;;;;;5123373;27;20126;-73
2023/06/05 10:14:24;;;;;;;0.00;0.00;;;24.70;99.90;;;;;;5123651;27;20313;-73
2023/06/05 10:16:54;;;;;;;0.20;0.17;;;24.40;99.90;;;;;;5123116;27;20568;-73
2023/06/05 10:19:20;;;;;;;0.95;0.82;;;24.40;99.90;;;;;;5123293;27;20515;-73
2023/06/05 10:21:50;;;;;;;0.00;0.00;;;24.00;99.90;;;;;;5123007;27;20145;-73
2023/06/05 10:24:23;;;;;;;0.10;0.10;;;24.20;99.90;;;;;;5123507;27;20093;-73
2023/06/05 10:27:07;;;;;;;0.17;0.15;;;23.90;99.90;;;;;;5123928;27;20355;-73
2023/06/05 10:30:03;;;;;;;0.00;0.00;;;24.10;99.90;;;;;;5123516;27;20051;-73
2023/06/05 10:32:28;;;;;;;0.43;0.32;;;24.20;99.90;;;;;;5123726;27;20273;-73
2023/06/05 10:35:32;;;;;;;0.05;0.05;;;23.90;99.90;;;;;;5122788;27;20511;-73
2023/06/05 10:38:17;;;;;;;0.00;0.00;;;23.70;99.90;;;;;;5122201;27;20047;-73
2023/06/05 10:40:53;;;;;;;0.20;0.20;;;24.00;99.90;;;;;;5122570;27;20066;-73
2023/06/05 10:43:28;;;;;;;0.25;0.20;;;24.30;99.90;;;;;;5122699;27;20078;-73
2023/06/05 10:45:54;;;;;;;0.07;0.07;;;23.90;99.90;;;;;;5123315;27;20114;-73
2023/06/05 10:48:20;;;;;;;0.32;0.15;;;24.00;99.90;;;;;;5123284;27;20047;-73
2023/06/05 10:50:46;;;;;;;0.47;0.47;;;24.20;99.90;;;;;;5123255;27;20046;-73
2023/06/05 10:53:48;;;;;;;0.00;0.00;;;24.40;99.90;;;;;;5123426;27;20065;-73
2023/06/05 10:56:51;;;;;;;0.70;0.43;;;24.20;99.90;;;;;;5123282;27;20048;-73
2023/06/05 10:59:20;;;;;;;0.80;0.47;;;24.70;99.90;;;;;;5122767;27;20493;-73
2023/06/05 11:02:06;;;;;;;1.40;0.52;;;24.80;99.90;;;;;;5123074;27;20409;-73
2023/06/05 11:04:47;;;;;;;0.10;0.00;;;24.80;99.90;;;;;;5122713;27;20055;-73
2023/06/05 11:07:21;;;;;;;6.72;0.88;;;24.70;99.90;;;;;;5123026;27;20051;-73
2023/06/05 11:10:05;;;;;;;0.43;0.30;;;24.40;99.90;;;;;;5121914;27;20497;-73
2023/06/05 11:12:42;;;;;;;0.30;0.20;;;24.60;99.90;;;;;;5122729;27;20950;-73
2023/06/05 11:15:33;;;;;;;0.10;0.10;;;24.80;99.90;;;;;;5122800;27;20218;-73
2023/06/05 11:18:29;;;;;;;0.85;0.32;;;24.90;99.90;;;;;;5123148;27;20043;-73
2023/06/05 11:20:55;;;;;;;0.10;0.10;;;24.40;99.90;;;;;;5123065;27;20047;-73
2023/06/05 11:23:21;;;;;;;0.22;0.20;;;24.40;99.90;;;;;;5123001;27;20047;-73
2023/06/05 11:25:48;;;;;;;1.27;0.75;;;24.30;99.90;;;;;;5122927;28;20124;-73
2023/06/05 11:28:38;;;;;;;0.35;0.25;;;24.40;99.90;;;;;;5123285;28;20047;-73
2023/06/05 11:31:04;;;;;;;0.13;0.10;;;24.90;99.90;;;;;;5123117;28;20137;-73
2023/06/05 11:33:30;;;;;;;0.10;0.10;;;25.00;99.90;;;;;;5123277;28;20559;-73
2023/06/05 11:36:01;;;;;;;0.00;0.00;;;25.10;99.90;;;;;;5122896;28;20046;-73
2023/06/05 11:38:26;;;;;;;0.85;0.40;;;25.50;99.90;;;;;;5122442;28;20493;-73
2023/06/05 11:40:53;;;;;;;0.30;0.25;;;26.10;99.90;;;;;;5122732;28;20035;-73
2023/06/05 11:43:20;;;;;;;0.65;0.47;;;26.80;99.90;;;;;;5122664;28;20039;-73
2023/06/05 11:45:51;;;;;;;0.20;0.20;;;27.10;99.90;;;;;;5122572;28;20078;-73
2023/06/05 11:48:17;;;;;;;0.55;0.47;;;27.70;99.90;;;;;;5122627;28;20051;-73
2023/06/05 11:51:04;;;;;;;0.00;0.00;;;28.20;99.90;;;;;;5122498;28;20454;-73
2023/06/05 11:53:31;;;;;;;0.17;0.17;;;28.60;99.90;;;;;;5122540;28;20055;-73
2023/06/05 11:58:30;;;;;;;0.30;0.28;;;29.10;99.90;;;;;;5122698;28;20058;-73
2023/06/05 12:01:22;;;;;;;0.35;0.30;;;28.80;99.90;;;;;;5122800;28;20047;-73
2023/06/05 12:03:49;;;;;;;0.25;0.25;;;29.30;99.90;;;;;;5122639;28;20054;-73
2023/06/05 12:06:17;;;;;;;1.67;1.00;;;29.60;99.90;;;;;;5122587;28;20042;-74
2023/06/05 12:08:44;;;;;;;0.45;0.40;;;29.60;99.90;;;;;;5122681;28;20055;-73
2023/06/05 12:11:27;;;;;;;0.10;0.10;;;29.40;99.90;;;;;;5122369;28;20127;-73
2023/06/05 12:13:56;;;;;;;0.28;0.28;;;29.60;99.90;;;;;;5122138;28;20051;-73
2023/06/05 12:16:43;;;;;;;0.50;0.40;;;29.30;99.90;;;;;;5122423;28;20055;-74
2023/06/05 12:19:17;;;;;;;0.80;0.13;;;28.80;99.90;;;;;;5122508;28;20082;-74
2023/06/05 12:21:50;;;;;;;2.07;1.10;;;28.80;99.90;;;;;;5123055;27;20047;-73
2023/06/05 12:24:25;;;;;;;0.38;0.30;;;29.20;99.90;;;;;;5125972;27;20119;-74
2023/06/05 12:26:53;;;;;;;;;;;29.60;99.90;;;;;;5127043;27;20059;-74
2023/06/05 12:29:21;;;;;;;0.20;0.20;;;29.30;99.90;;;;;;5126027;27;20010;-74
2023/06/05 12:31:47;;;;;;;0.85;0.43;;;29.50;99.90;;;;;;5126173;27;20039;-74
2023/06/05 12:34:15;;;;;;;0.52;0.43;;;29.40;99.90;;;;;;5126161;27;20047;-74
2023/06/05 12:36:42;;;;;;;3.33;0.80;;;29.80;99.90;;;;;;5125960;27;20086;-74
2023/06/05 12:39:10;;;;;;;0.20;0.20;;;30.10;99.90;;;;;;5125873;27;20514;-74
2023/06/05 12:41:36;;;;;;;0.00;0.00;;;30.10;99.90;;;;;;5125918;27;20121;-74
2023/06/05 12:44:07;;;;;;;0.00;0.00;;;29.50;99.90;;;;;;5125619;27;20118;-74
2023/06/05 12:46:34;;;;;;;0.20;0.13;;;28.90;99.90;;;;;;5125697;27;20047;-74
2023/06/05 12:49:00;;;;;;;0.22;0.22;;;29.00;99.90;;;;;;5125478;27;20117;-74
2023/06/05 12:51:27;;;;;;;0.65;0.40;;;29.20;99.90;;;;;;5125466;27;20058;-74
2023/06/05 12:53:56;;;;;;;4.00;1.40;;;28.90;99.90;;;;;;5125451;27;20043;-74
2023/06/05 12:56:26;;;;;;;0.47;0.30;;;28.70;99.90;;;;;;5125508;27;20039;-74
2023/06/05 12:58:54;;;;;;;0.08;0.08;;;28.50;99.90;;;;;;5125579;27;20066;-74
2023/06/05 13:01:21;;;;;;;0.00;0.00;;;28.70;99.90;;;;;;5125361;27;20054;-74
2023/06/05 13:03:47;;;;;;;0.22;0.22;;;29.50;99.90;;;;;;5125387;27;20092;-74